sensor_id;sensor_type;location;lat;lon;timestamp;pressure;altitude;pressure_sealevel;temperature
77728;BMP280;68312;53.502;10.030;2023-04-15T00:00:45;101200.88;;;7.99
77728;BMP280;68312;53.502;10.030;2023-04-15T00:03:10;101205.34;;;7.99
77728;BMP280;68312;53.502;10.030;2023-04-15T00:05:36;101202.03;;;7.93
77728;BMP280;68312;53.502;10.030;2023-04-15T00:08:01;101194.47;;;7.92
77728;BMP280;68312;53.502;10.030;2023-04-15T00:10:27;101190.78;;;7.93
77728;BMP280;68312;53.502;10.030;2023-04-15T00:12:52;101197.34;;;7.90
77728;BMP280;68312;53.502;10.030;2023-04-15T00:15:18;101181.75;;;7.85
77728;BMP280;68312;53.502;10.030;2023-04-15T00:17:44;101190.94;;;7.83
77728;BMP280;68312;53.502;10.030;2023-04-15T00:20:10;101184.41;;;7.80
77728;BMP280;68312;53.502;10.030;2023-04-15T00:22:36;101194.09;;;7.80
77728;BMP280;68312;53.502;10.030;2023-04-15T00:25:01;101187.31;;;7.79
77728;BMP280;68312;53.502;10.030;2023-04-15T00:27:27;101192.03;;;7.77
77728;BMP280;68312;53.502;10.030;2023-04-15T00:29:53;101196.50;;;7.76
77728;BMP280;68312;53.502;10.030;2023-04-15T00:32:19;101191.56;;;7.75
77728;BMP280;68312;53.502;10.030;2023-04-15T00:34:44;101194.19;;;7.75
77728;BMP280;68312;53.502;10.030;2023-04-15T00:37:10;101191.84;;;7.74
77728;BMP280;68312;53.502;10.030;2023-04-15T00:39:37;101188.72;;;7.72
77728;BMP280;68312;53.502;10.030;2023-04-15T00:42:05;101187.19;;;7.71
77728;BMP280;68312;53.502;10.030;2023-04-15T00:44:32;101190.31;;;7.68
77728;BMP280;68312;53.502;10.030;2023-04-15T00:46:59;101190.84;;;7.70
77728;BMP280;68312;53.502;10.030;2023-04-15T00:49:26;101184.84;;;7.69
77728;BMP280;68312;53.502;10.030;2023-04-15T00:51:53;101193.75;;;7.68
77728;BMP280;68312;53.502;10.030;2023-04-15T00:54:18;101187.22;;;7.66
77728;BMP280;68312;53.502;10.030;2023-04-15T00:56:44;101187.72;;;7.68
77728;BMP280;68312;53.502;10.030;2023-04-15T00:59:10;101188.56;;;7.63
77728;BMP280;68312;53.502;10.030;2023-04-15T01:01:36;101183.66;;;7.62
77728;BMP280;68312;53.502;10.030;2023-04-15T01:04:03;101187.31;;;7.61
77728;BMP280;68312;53.502;10.030;2023-04-15T01:06:30;101190.69;;;7.61
77728;BMP280;68312;53.502;10.030;2023-04-15T01:08:56;101183.16;;;7.60
77728;BMP280;68312;53.502;10.030;2023-04-15T01:11:24;101185.75;;;7.60
77728;BMP280;68312;53.502;10.030;2023-04-15T01:13:51;101183.91;;;7.60
77728;BMP280;68312;53.502;10.030;2023-04-15T01:16:18;101183.16;;;7.60
77728;BMP280;68312;53.502;10.030;2023-04-15T01:18:44;101178.97;;;7.59
77728;BMP280;68312;53.502;10.030;2023-04-15T01:21:10;101178.69;;;7.60
77728;BMP280;68312;53.502;10.030;2023-04-15T01:23:37;101180.53;;;7.60
77728;BMP280;68312;53.502;10.030;2023-04-15T01:26:04;101173.72;;;7.59
77728;BMP280;68312;53.502;10.030;2023-04-15T01:28:33;101169.56;;;7.58
77728;BMP280;68312;53.502;10.030;2023-04-15T01:31:09;101174.81;;;7.58
77728;BMP280;68312;53.502;10.030;2023-04-15T01:33:40;101173.72;;;7.59
77728;BMP280;68312;53.502;10.030;2023-04-15T01:36:08;101158.31;;;7.57
77728;BMP280;68312;53.502;10.030;2023-04-15T01:38:35;101159.88;;;7.58
77728;BMP280;68312;53.502;10.030;2023-04-15T01:41:02;101154.16;;;7.56
77728;BMP280;68312;53.502;10.030;2023-04-15T01:43:29;101158.63;;;7.56
77728;BMP280;68312;53.502;10.030;2023-04-15T01:45:54;101163.06;;;7.55
77728;BMP280;68312;53.502;10.030;2023-04-15T01:48:21;101154.44;;;7.55
77728;BMP280;68312;53.502;10.030;2023-04-15T01:50:47;101153.88;;;7.58
77728;BMP280;68312;53.502;10.030;2023-04-15T01:53:12;101137.91;;;7.59
77728;BMP280;68312;53.502;10.030;2023-04-15T01:55:39;101135.59;;;7.58
77728;BMP280;68312;53.502;10.030;2023-04-15T01:58:05;101136.63;;;7.57
77728;BMP280;68312;53.502;10.030;2023-04-15T02:00:30;101146.06;;;7.58
77728;BMP280;68312;53.502;10.030;2023-04-15T02:02:56;101145.53;;;7.56
77728;BMP280;68312;53.502;10.030;2023-04-15T02:05:23;101142.94;;;7.56
77728;BMP280;68312;53.502;10.030;2023-04-15T02:07:50;101133.25;;;7.56
77728;BMP280;68312;53.502;10.030;2023-04-15T02:10:16;101131.13;;;7.58
77728;BMP280;68312;53.502;10.030;2023-04-15T02:12:41;101137.91;;;7.59
77728;BMP280;68312;53.502;10.030;2023-04-15T02:15:08;101138.72;;;7.60
77728;BMP280;68312;53.502;10.030;2023-04-15T02:17:35;101138.16;;;7.63
77728;BMP280;68312;53.502;10.030;2023-04-15T02:20:02;101140.75;;;7.63
77728;BMP280;68312;53.502;10.030;2023-04-15T02:22:32;101144.94;;;7.64
77728;BMP280;68312;53.502;10.030;2023-04-15T02:24:58;101133.69;;;7.63
77728;BMP280;68312;53.502;10.030;2023-04-15T02:27:24;101134.75;;;7.62
77728;BMP280;68312;53.502;10.030;2023-04-15T02:29:50;101145.72;;;7.64
77728;BMP280;68312;53.502;10.030;2023-04-15T02:32:16;101141.03;;;7.61
77728;BMP280;68312;53.502;10.030;2023-04-15T02:34:41;101138.16;;;7.63
77728;BMP280;68312;53.502;10.030;2023-04-15T02:37:08;101145.97;;;7.63
77728;BMP280;68312;53.502;10.030;2023-04-15T02:39:35;101135.16;;;7.69
77728;BMP280;68312;53.502;10.030;2023-04-15T02:42:01;101141.16;;;7.70
77728;BMP280;68312;53.502;10.030;2023-04-15T02:44:27;101135.16;;;7.69
77728;BMP280;68312;53.502;10.030;2023-04-15T02:46:53;101133.13;;;7.66
77728;BMP280;68312;53.502;10.030;2023-04-15T02:49:19;101132.81;;;7.68
77728;BMP280;68312;53.502;10.030;2023-04-15T02:51:46;101135.66;;;7.71
77728;BMP280;68312;53.502;10.030;2023-04-15T02:54:19;101130.72;;;7.70
77728;BMP280;68312;53.502;10.030;2023-04-15T02:56:46;101137.22;;;7.72
77728;BMP280;68312;53.502;10.030;2023-04-15T02:59:12;101143.25;;;7.73
77728;BMP280;68312;53.502;10.030;2023-04-15T03:01:38;101136.44;;;7.72
77728;BMP280;68312;53.502;10.030;2023-04-15T03:04:03;101136.44;;;7.72
77728;BMP280;68312;53.502;10.030;2023-04-15T03:06:29;101134.59;;;7.72
77728;BMP280;68312;53.502;10.030;2023-04-15T03:08:55;101131.97;;;7.72
77728;BMP280;68312;53.502;10.030;2023-04-15T03:11:21;101132.22;;;7.75
77728;BMP280;68312;53.502;10.030;2023-04-15T03:13:47;101128.84;;;7.75
77728;BMP280;68312;53.502;10.030;2023-04-15T03:16:12;101134.06;;;7.75
77728;BMP280;68312;53.502;10.030;2023-04-15T03:18:38;101135.03;;;7.79
77728;BMP280;68312;53.502;10.030;2023-04-15T03:21:03;101136.38;;;7.76
77728;BMP280;68312;53.502;10.030;2023-04-15T03:23:32;101139.00;;;7.76
77728;BMP280;68312;53.502;10.030;2023-04-15T03:26:01;101136.06;;;7.78
77728;BMP280;68312;53.502;10.030;2023-04-15T03:28:27;101136.88;;;7.78
77728;BMP280;68312;53.502;10.030;2023-04-15T03:30:54;101135.81;;;7.79
77728;BMP280;68312;53.502;10.030;2023-04-15T03:33:19;101136.03;;;7.83
77728;BMP280;68312;53.502;10.030;2023-04-15T03:35:45;101131.56;;;7.83
77728;BMP280;68312;53.502;10.030;2023-04-15T03:38:11;101122.41;;;7.86
77728;BMP280;68312;53.502;10.030;2023-04-15T03:40:37;101127.31;;;7.87
77728;BMP280;68312;53.502;10.030;2023-04-15T03:43:05;101125.28;;;7.84
77728;BMP280;68312;53.502;10.030;2023-04-15T03:45:31;101124.50;;;7.84
77728;BMP280;68312;53.502;10.030;2023-04-15T03:47:57;101118.50;;;7.83
77728;BMP280;68312;53.502;10.030;2023-04-15T03:50:22;101122.16;;;7.82
77728;BMP280;68312;53.502;10.030;2023-04-15T03:52:48;101124.50;;;7.84
77728;BMP280;68312;53.502;10.030;2023-04-15T03:55:14;101127.88;;;7.84
77728;BMP280;68312;53.502;10.030;2023-04-15T03:57:39;101127.88;;;7.84
77728;BMP280;68312;53.502;10.030;2023-04-15T04:00:06;101132.34;;;7.84
77728;BMP280;68312;53.502;10.030;2023-04-15T04:02:34;101140.97;;;7.84
77728;BMP280;68312;53.502;10.030;2023-04-15T04:05:00;101144.09;;;7.86
77728;BMP280;68312;53.502;10.030;2023-04-15T04:07:26;101148.25;;;7.87
77728;BMP280;68312;53.502;10.030;2023-04-15T04:09:51;101140.69;;;7.86
77728;BMP280;68312;53.502;10.030;2023-04-15T04:12:17;101137.31;;;7.85
77728;BMP280;68312;53.502;10.030;2023-04-15T04:14:42;101132.84;;;7.86
77728;BMP280;68312;53.502;10.030;2023-04-15T04:17:08;101137.31;;;7.85
77728;BMP280;68312;53.502;10.030;2023-04-15T04:19:33;101143.22;;;7.91
77728;BMP280;68312;53.502;10.030;2023-04-15T04:21:59;101133.56;;;7.91
77728;BMP280;68312;53.502;10.030;2023-04-15T04:24:25;101137.97;;;7.91
77728;BMP280;68312;53.502;10.030;2023-04-15T04:26:51;101133.06;;;7.89
77728;BMP280;68312;53.502;10.030;2023-04-15T04:29:16;101138.28;;;7.89
77728;BMP280;68312;53.502;10.030;2023-04-15T04:31:41;101134.59;;;7.90
77728;BMP280;68312;53.502;10.030;2023-04-15T04:34:07;101138.22;;;7.94
77728;BMP280;68312;53.502;10.030;2023-04-15T04:36:32;101141.31;;;7.96
77728;BMP280;68312;53.502;10.030;2023-04-15T04:38:58;101142.38;;;7.95
77728;BMP280;68312;53.502;10.030;2023-04-15T04:41:25;101134.53;;;7.95
77728;BMP280;68312;53.502;10.030;2023-04-15T04:43:51;101142.84;;;7.97
77728;BMP280;68312;53.502;10.030;2023-04-15T04:46:16;101141.78;;;7.98
77728;BMP280;68312;53.502;10.030;2023-04-15T04:48:42;101138.09;;;7.99
77728;BMP280;68312;53.502;10.030;2023-04-15T04:51:07;101135.72;;;8.03
77728;BMP280;68312;53.502;10.030;2023-04-15T04:53:33;101142.78;;;8.02
77728;BMP280;68312;53.502;10.030;2023-04-15T04:55:59;101137.75;;;8.05
77728;BMP280;68312;53.502;10.030;2023-04-15T04:58:25;101143.31;;;8.04
77728;BMP280;68312;53.502;10.030;2023-04-15T05:00:51;101138.34;;;8.03
77728;BMP280;68312;53.502;10.030;2023-04-15T05:03:16;101138.56;;;8.06
77728;BMP280;68312;53.502;10.030;2023-04-15T05:05:42;101137.50;;;8.07
77728;BMP280;68312;53.502;10.030;2023-04-15T05:08:08;101144.56;;;8.06
77728;BMP280;68312;53.502;10.030;2023-04-15T05:10:33;101149.50;;;8.08
77728;BMP280;68312;53.502;10.030;2023-04-15T05:13:00;101146.59;;;8.09
77728;BMP280;68312;53.502;10.030;2023-04-15T05:15:25;101149.69;;;8.11
77728;BMP280;68312;53.502;10.030;2023-04-15T05:17:51;101148.16;;;8.10
77728;BMP280;68312;53.502;10.030;2023-04-15T05:20:16;101140.22;;;8.15
77728;BMP280;68312;53.502;10.030;2023-04-15T05:22:42;101137.34;;;8.17
77728;BMP280;68312;53.502;10.030;2023-04-15T05:25:08;101139.47;;;8.15
77728;BMP280;68312;53.502;10.030;2023-04-15T05:27:33;101147.00;;;8.16
77728;BMP280;68312;53.502;10.030;2023-04-15T05:29:59;101141.78;;;8.16
77728;BMP280;68312;53.502;10.030;2023-04-15T05:32:25;101149.81;;;8.20
77728;BMP280;68312;53.502;10.030;2023-04-15T05:34:50;101151.09;;;8.22
77728;BMP280;68312;53.502;10.030;2023-04-15T05:37:16;101152.16;;;8.21
77728;BMP280;68312;53.502;10.030;2023-04-15T05:39:45;101148.78;;;8.21
77728;BMP280;68312;53.502;10.030;2023-04-15T05:42:10;101152.38;;;8.25
77728;BMP280;68312;53.502;10.030;2023-04-15T05:44:36;101152.09;;;8.26
77728;BMP280;68312;53.502;10.030;2023-04-15T05:47:02;101152.38;;;8.25
77728;BMP280;68312;53.502;10.030;2023-04-15T05:49:28;101153.63;;;8.27
77728;BMP280;68312;53.502;10.030;2023-04-15T05:51:54;101160.22;;;8.25
77728;BMP280;68312;53.502;10.030;2023-04-15T05:54:19;101156.44;;;8.31
77728;BMP280;68312;53.502;10.030;2023-04-15T05:56:47;101153.56;;;8.32
77728;BMP280;68312;53.502;10.030;2023-04-15T05:59:13;101160.13;;;8.30
77728;BMP280;68312;53.502;10.030;2023-04-15T06:01:39;101162.44;;;8.31
77728;BMP280;68312;53.502;10.030;2023-04-15T06:04:05;101165.56;;;8.33
77728;BMP280;68312;53.502;10.030;2023-04-15T06:06:30;101165.28;;;8.35
77728;BMP280;68312;53.502;10.030;2023-04-15T06:08:56;101167.34;;;8.37
77728;BMP280;68312;53.502;10.030;2023-04-15T06:11:22;101175.75;;;8.35
77728;BMP280;68312;53.502;10.030;2023-04-15T06:13:48;101175.38;;;8.41
77728;BMP280;68312;53.502;10.030;2023-04-15T06:16:14;101180.13;;;8.39
77728;BMP280;68312;53.502;10.030;2023-04-15T06:18:39;101185.00;;;8.45
77728;BMP280;68312;53.502;10.030;2023-04-15T06:21:05;101189.16;;;8.46
77728;BMP280;68312;53.502;10.030;2023-04-15T06:23:33;101184.22;;;8.45
77728;BMP280;68312;53.502;10.030;2023-04-15T06:26:01;101180.34;;;8.42
77728;BMP280;68312;53.502;10.030;2023-04-15T06:28:27;101183.72;;;8.43
77728;BMP280;68312;53.502;10.030;2023-04-15T06:30:53;101187.91;;;8.44
77728;BMP280;68312;53.502;10.030;2023-04-15T06:33:19;101189.16;;;8.46
77728;BMP280;68312;53.502;10.030;2023-04-15T06:35:45;101195.94;;;8.47
77728;BMP280;68312;53.502;10.030;2023-04-15T06:40:41;101196.34;;;8.54
77728;BMP280;68312;53.502;10.030;2023-04-15T06:43:08;101200.53;;;8.55
77728;BMP280;68312;53.502;10.030;2023-04-15T06:45:35;101202.50;;;8.63
77728;BMP280;68312;53.502;10.030;2023-04-15T06:48:02;101194.72;;;8.58
77728;BMP280;68312;53.502;10.030;2023-04-15T06:50:30;101195.50;;;8.59
77728;BMP280;68312;53.502;10.030;2023-04-15T06:52:57;101199.41;;;8.61
77728;BMP280;68312;53.502;10.030;2023-04-15T06:55:23;101204.06;;;8.64
77728;BMP280;68312;53.502;10.030;2023-04-15T06:57:49;101204.81;;;8.65
77728;BMP280;68312;53.502;10.030;2023-04-15T07:00:15;101199.28;;;8.66
77728;BMP280;68312;53.502;10.030;2023-04-15T07:02:41;101206.00;;;8.72
77728;BMP280;68312;53.502;10.030;2023-04-15T07:05:07;101201.75;;;8.76
77728;BMP280;68312;53.502;10.030;2023-04-15T07:07:34;101214.38;;;8.87
77728;BMP280;68312;53.502;10.030;2023-04-15T07:10:00;101208.53;;;8.90
77728;BMP280;68312;53.502;10.030;2023-04-15T07:12:27;101211.28;;;8.98
77728;BMP280;68312;53.502;10.030;2023-04-15T07:14:53;101202.84;;;9.01
77728;BMP280;68312;53.502;10.030;2023-04-15T07:17:18;101204.72;;;9.01
77728;BMP280;68312;53.502;10.030;2023-04-15T07:19:44;101205.75;;;9.00
77728;BMP280;68312;53.502;10.030;2023-04-15T07:22:25;101210.22;;;8.99
77728;BMP280;68312;53.502;10.030;2023-04-15T07:24:51;101203.91;;;9.00
77728;BMP280;68312;53.502;10.030;2023-04-15T07:27:16;101217.47;;;9.02
77728;BMP280;68312;53.502;10.030;2023-04-15T07:29:42;101223.81;;;9.01
77728;BMP280;68312;53.502;10.030;2023-04-15T07:32:08;101225.66;;;9.01
77728;BMP280;68312;53.502;10.030;2023-04-15T07:34:35;101224.69;;;8.97
77728;BMP280;68312;53.502;10.030;2023-04-15T07:37:01;101224.28;;;9.03
77728;BMP280;68312;53.502;10.030;2023-04-15T07:39:27;101229.22;;;9.05
77728;BMP280;68312;53.502;10.030;2023-04-15T07:41:54;101226.81;;;9.08
77728;BMP280;68312;53.502;10.030;2023-04-15T07:44:21;101231.78;;;9.10
77728;BMP280;68312;53.502;10.030;2023-04-15T07:46:46;101229.16;;;9.10
77728;BMP280;68312;53.502;10.030;2023-04-15T07:49:12;101236.25;;;9.09
77728;BMP280;68312;53.502;10.030;2023-04-15T07:51:38;101241.00;;;9.07
77728;BMP280;68312;53.502;10.030;2023-04-15T07:54:04;101245.66;;;9.10
77728;BMP280;68312;53.502;10.030;2023-04-15T07:56:29;101235.38;;;9.14
77728;BMP280;68312;53.502;10.030;2023-04-15T07:58:55;101243.41;;;9.17
77728;BMP280;68312;53.502;10.030;2023-04-15T08:01:20;101253.13;;;9.17
77728;BMP280;68312;53.502;10.030;2023-04-15T08:03:47;101236.72;;;9.11
77728;BMP280;68312;53.502;10.030;2023-04-15T08:06:13;101252.44;;;9.11
77728;BMP280;68312;53.502;10.030;2023-04-15T08:08:39;101250.59;;;9.12
77728;BMP280;68312;53.502;10.030;2023-04-15T08:11:04;101256.03;;;9.15
77728;BMP280;68312;53.502;10.030;2023-04-15T08:13:31;101248.06;;;9.20
77728;BMP280;68312;53.502;10.030;2023-04-15T08:16:13;101254.00;;;9.25
77728;BMP280;68312;53.502;10.030;2023-04-15T08:18:43;101258.34;;;9.30
77728;BMP280;68312;53.502;10.030;2023-04-15T08:21:10;101260.03;;;9.39
77728;BMP280;68312;53.502;10.030;2023-04-15T08:23:37;101259.53;;;9.51
77728;BMP280;68312;53.502;10.030;2023-04-15T08:26:03;101257.88;;;9.55
77728;BMP280;68312;53.502;10.030;2023-04-15T08:28:31;101260.38;;;9.59
77728;BMP280;68312;53.502;10.030;2023-04-15T08:30:57;101258.94;;;9.67
77728;BMP280;68312;53.502;10.030;2023-04-15T08:33:22;101263.69;;;9.65
77728;BMP280;68312;53.502;10.030;2023-04-15T08:35:48;101258.84;;;9.58
77728;BMP280;68312;53.502;10.030;2023-04-15T08:38:14;101262.38;;;9.54
77728;BMP280;68312;53.502;10.030;2023-04-15T08:40:45;101263.88;;;9.55
77728;BMP280;68312;53.502;10.030;2023-04-15T08:43:23;101265.94;;;9.58
77728;BMP280;68312;53.502;10.030;2023-04-15T08:45:55;101264.75;;;9.64
77728;BMP280;68312;53.502;10.030;2023-04-15T08:48:25;101262.69;;;9.74
77728;BMP280;68312;53.502;10.030;2023-04-15T08:50:53;101262.00;;;9.82
77728;BMP280;68312;53.502;10.030;2023-04-15T08:53:20;101259.47;;;9.90
77728;BMP280;68312;53.502;10.030;2023-04-15T08:55:51;101271.88;;;9.98
77728;BMP280;68312;53.502;10.030;2023-04-15T08:58:22;101264.78;;;9.99
77728;BMP280;68312;53.502;10.030;2023-04-15T09:00:49;101273.31;;;10.04
77728;BMP280;68312;53.502;10.030;2023-04-15T09:03:15;101274.94;;;10.13
77728;BMP280;68312;53.502;10.030;2023-04-15T09:05:41;101282.53;;;10.37
77728;BMP280;68312;53.502;10.030;2023-04-15T09:08:08;101285.91;;;10.50
77728;BMP280;68312;53.502;10.030;2023-04-15T09:10:34;101290.25;;;10.55
77728;BMP280;68312;53.502;10.030;2023-04-15T09:13:00;101288.41;;;10.55
77728;BMP280;68312;53.502;10.030;2023-04-15T09:15:27;101279.88;;;10.50
77728;BMP280;68312;53.502;10.030;2023-04-15T09:17:55;101290.38;;;10.50
77728;BMP280;68312;53.502;10.030;2023-04-15T09:20:21;101291.25;;;10.45
77728;BMP280;68312;53.502;10.030;2023-04-15T09:22:48;101294.97;;;10.44
77728;BMP280;68312;53.502;10.030;2023-04-15T09:27:52;101291.59;;;10.31
77728;BMP280;68312;53.502;10.030;2023-04-15T09:30:24;101295.81;;;10.32
77728;BMP280;68312;53.502;10.030;2023-04-15T09:32:58;101290.78;;;10.43
77728;BMP280;68312;53.502;10.030;2023-04-15T09:35:29;101276.03;;;10.56
77728;BMP280;68312;53.502;10.030;2023-04-15T09:38:08;101280.63;;;10.72
77728;BMP280;68312;53.502;10.030;2023-04-15T09:40:38;101284.41;;;10.88
77728;BMP280;68312;53.502;10.030;2023-04-15T09:43:08;101283.00;;;11.12
77728;BMP280;68312;53.502;10.030;2023-04-15T09:45:46;101274.59;;;11.48
77728;BMP280;68312;53.502;10.030;2023-04-15T09:48:26;101274.38;;;11.75
77728;BMP280;68312;53.502;10.030;2023-04-15T09:50:58;101280.41;;;12.00
77728;BMP280;68312;53.502;10.030;2023-04-15T09:53:26;101281.94;;;12.26
77728;BMP280;68312;53.502;10.030;2023-04-15T09:55:55;101282.69;;;12.18
77728;BMP280;68312;53.502;10.030;2023-04-15T09:58:34;101288.78;;;12.02
77728;BMP280;68312;53.502;10.030;2023-04-15T10:01:05;101285.19;;;11.98
77728;BMP280;68312;53.502;10.030;2023-04-15T10:03:34;101284.28;;;11.94
77728;BMP280;68312;53.502;10.030;2023-04-15T10:06:10;101287.06;;;12.06
77728;BMP280;68312;53.502;10.030;2023-04-15T10:08:39;101295.75;;;12.15
77728;BMP280;68312;53.502;10.030;2023-04-15T10:11:06;101294.16;;;12.31
77728;BMP280;68312;53.502;10.030;2023-04-15T10:16:11;101295.06;;;13.05
77728;BMP280;68312;53.502;10.030;2023-04-15T10:18:42;101299.53;;;13.41
77728;BMP280;68312;53.502;10.030;2023-04-15T10:21:10;101301.75;;;13.59
77728;BMP280;68312;53.502;10.030;2023-04-15T10:23:45;101298.94;;;13.64
77728;BMP280;68312;53.502;10.030;2023-04-15T10:26:12;101299.03;;;13.68
77728;BMP280;68312;53.502;10.030;2023-04-15T10:28:40;101295.22;;;14.17
77728;BMP280;68312;53.502;10.030;2023-04-15T10:31:06;101298.94;;;14.48
77728;BMP280;68312;53.502;10.030;2023-04-15T10:33:33;101306.09;;;14.48
77728;BMP280;68312;53.502;10.030;2023-04-15T10:36:00;101299.47;;;14.86
77728;BMP280;68312;53.502;10.030;2023-04-15T10:38:38;101302.34;;;14.81
77728;BMP280;68312;53.502;10.030;2023-04-15T10:41:18;101294.56;;;14.20
77728;BMP280;68312;53.502;10.030;2023-04-15T10:43:55;101300.66;;;14.76
77728;BMP280;68312;53.502;10.030;2023-04-15T10:46:36;101292.94;;;15.81
77728;BMP280;68312;53.502;10.030;2023-04-15T10:49:11;101293.78;;;16.12
77728;BMP280;68312;53.502;10.030;2023-04-15T10:51:51;101295.47;;;15.27
77728;BMP280;68312;53.502;10.030;2023-04-15T10:59:28;101306.94;;;13.96
77728;BMP280;68312;53.502;10.030;2023-04-15T11:01:57;101317.59;;;13.80
77728;BMP280;68312;53.502;10.030;2023-04-15T11:04:54;101306.97;;;13.88
77728;BMP280;68312;53.502;10.030;2023-04-15T11:07:38;101313.81;;;13.89
77728;BMP280;68312;53.502;10.030;2023-04-15T11:12:43;101319.41;;;13.87
77728;BMP280;68312;53.502;10.030;2023-04-15T11:15:30;101327.84;;;14.01
77728;BMP280;68312;53.502;10.030;2023-04-15T11:18:18;101331.53;;;14.20
77728;BMP280;68312;53.502;10.030;2023-04-15T11:20:51;101328.59;;;14.22
77728;BMP280;68312;53.502;10.030;2023-04-15T11:23:38;101326.50;;;13.95
77728;BMP280;68312;53.502;10.030;2023-04-15T11:26:10;101335.03;;;13.72
77728;BMP280;68312;53.502;10.030;2023-04-15T11:28:43;101332.16;;;13.65
77728;BMP280;68312;53.502;10.030;2023-04-15T11:31:17;101349.78;;;13.73
77728;BMP280;68312;53.502;10.030;2023-04-15T11:33:52;101344.34;;;13.78
77728;BMP280;68312;53.502;10.030;2023-04-15T11:36:26;101348.59;;;13.71
77728;BMP280;68312;53.502;10.030;2023-04-15T11:38:57;101360.22;;;13.70
77728;BMP280;68312;53.502;10.030;2023-04-15T11:41:23;101356.66;;;13.66
77728;BMP280;68312;53.502;10.030;2023-04-15T11:43:50;101356.19;;;13.64
77728;BMP280;68312;53.502;10.030;2023-04-15T11:46:17;101364.94;;;13.64
77728;BMP280;68312;53.502;10.030;2023-04-15T11:48:45;101355.63;;;13.58
77728;BMP280;68312;53.502;10.030;2023-04-15T11:51:12;101359.19;;;13.62
77728;BMP280;68312;53.502;10.030;2023-04-15T11:53:43;101365.38;;;13.66
77728;BMP280;68312;53.502;10.030;2023-04-15T11:56:20;101359.25;;;13.74
77728;BMP280;68312;53.502;10.030;2023-04-15T11:58:52;101365.63;;;13.73
77728;BMP280;68312;53.502;10.030;2023-04-15T12:01:36;101370.50;;;13.91
77728;BMP280;68312;53.502;10.030;2023-04-15T12:04:16;101361.66;;;14.08
77728;BMP280;68312;53.502;10.030;2023-04-15T12:06:44;101353.16;;;14.22
77728;BMP280;68312;53.502;10.030;2023-04-15T12:09:12;101357.38;;;14.35
77728;BMP280;68312;53.502;10.030;2023-04-15T12:11:47;101358.16;;;14.68
77728;BMP280;68312;53.502;10.030;2023-04-15T12:14:27;101358.41;;;14.74
77728;BMP280;68312;53.502;10.030;2023-04-15T12:16:58;101363.72;;;14.86
77728;BMP280;68312;53.502;10.030;2023-04-15T12:19:41;101359.59;;;14.77
77728;BMP280;68312;53.502;10.030;2023-04-15T12:22:11;101357.28;;;14.43
77728;BMP280;68312;53.502;10.030;2023-04-15T12:24:41;101365.06;;;14.28
77728;BMP280;68312;53.502;10.030;2023-04-15T12:27:11;101374.53;;;14.09
77728;BMP280;68312;53.502;10.030;2023-04-15T12:29:40;101377.31;;;13.92
77728;BMP280;68312;53.502;10.030;2023-04-15T12:32:12;101382.22;;;14.02
77728;BMP280;68312;53.502;10.030;2023-04-15T12:34:41;101384.41;;;14.00
77728;BMP280;68312;53.502;10.030;2023-04-15T12:37:13;101393.38;;;14.08
77728;BMP280;68312;53.502;10.030;2023-04-15T12:39:41;101398.47;;;14.13
77728;BMP280;68312;53.502;10.030;2023-04-15T12:42:10;101396.53;;;14.01
77728;BMP280;68312;53.502;10.030;2023-04-15T12:44:37;101392.72;;;13.90
77728;BMP280;68312;53.502;10.030;2023-04-15T12:47:04;101400.03;;;13.85
77728;BMP280;68312;53.502;10.030;2023-04-15T12:49:32;101407.06;;;13.81
77728;BMP280;68312;53.502;10.030;2023-04-15T12:51:58;101403.25;;;13.70
77728;BMP280;68312;53.502;10.030;2023-04-15T12:54:26;101409.09;;;13.76
77728;BMP280;68312;53.502;10.030;2023-04-15T12:56:54;101404.69;;;13.88
77728;BMP280;68312;53.502;10.030;2023-04-15T12:59:21;101419.13;;;13.90
77728;BMP280;68312;53.502;10.030;2023-04-15T13:01:48;101407.13;;;13.93
77728;BMP280;68312;53.502;10.030;2023-04-15T13:04:16;101416.94;;;13.92
77728;BMP280;68312;53.502;10.030;2023-04-15T13:06:42;101415.59;;;14.07
77728;BMP280;68312;53.502;10.030;2023-04-15T13:09:08;101416.75;;;14.17
77728;BMP280;68312;53.502;10.030;2023-04-15T13:11:34;101423.97;;;14.09
77728;BMP280;68312;53.502;10.030;2023-04-15T13:14:05;101419.22;;;14.22
77728;BMP280;68312;53.502;10.030;2023-04-15T13:16:33;101429.81;;;14.14
77728;BMP280;68312;53.502;10.030;2023-04-15T13:19:00;101424.16;;;14.04
77728;BMP280;68312;53.502;10.030;2023-04-15T13:21:27;101421.78;;;14.11
77728;BMP280;68312;53.502;10.030;2023-04-15T13:23:53;101437.66;;;14.11
77728;BMP280;68312;53.502;10.030;2023-04-15T13:26:19;101434.78;;;14.15
77728;BMP280;68312;53.502;10.030;2023-04-15T13:28:48;101433.91;;;14.12
77728;BMP280;68312;53.502;10.030;2023-04-15T13:31:13;101433.97;;;14.23
77728;BMP280;68312;53.502;10.030;2023-04-15T13:33:39;101435.53;;;14.24
77728;BMP280;68312;53.502;10.030;2023-04-15T13:36:05;101433.97;;;14.23
77728;BMP280;68312;53.502;10.030;2023-04-15T13:38:30;101435.75;;;14.31
77728;BMP280;68312;53.502;10.030;2023-04-15T13:40:57;101425.47;;;14.38
77728;BMP280;68312;53.502;10.030;2023-04-15T13:43:22;101431.69;;;14.42
77728;BMP280;68312;53.502;10.030;2023-04-15T13:45:48;101430.78;;;14.50
77728;BMP280;68312;53.502;10.030;2023-04-15T13:48:14;101434.78;;;14.56
77728;BMP280;68312;53.502;10.030;2023-04-15T13:50:39;101442.50;;;14.61
77728;BMP280;68312;53.502;10.030;2023-04-15T13:53:15;101442.50;;;14.81
77728;BMP280;68312;53.502;10.030;2023-04-15T13:55:40;101443.94;;;14.90
77728;BMP280;68312;53.502;10.030;2023-04-15T13:58:10;101438.31;;;14.80
77728;BMP280;68312;53.502;10.030;2023-04-15T14:00:35;101443.34;;;14.73
77728;BMP280;68312;53.502;10.030;2023-04-15T14:03:01;101451.63;;;14.71
77728;BMP280;68312;53.502;10.030;2023-04-15T14:05:26;101450.19;;;14.74
77728;BMP280;68312;53.502;10.030;2023-04-15T14:07:52;101442.66;;;14.96
77728;BMP280;68312;53.502;10.030;2023-04-15T14:10:18;101453.34;;;14.99